Terminal Aerodrome Forecast
Issued by NWS Sterling, VA

Current Version | Previous Version | Text Only | Print | Product List | Glossary Off
Versions: 1 2 3 4 5 6 7 8 9 10 11 12 13 14 15 16 17 18 19 20 21 22 23 24 25 26

000
FTUS41 KLWX 231100
TAFDCA
TAF
KDCA 231135Z 2312/2412 VRB03KT P6SM SCT250
     FM232100 18006KT P6SM SCT025 OVC080
     FM232300 17006KT P6SM -FZRAPL SCT025 OVC060
     FM240200 13004KT 5SM -FZRASNPL BKN008 OVC020
     FM240600 07004KT 4SM -RA BR BKN008 OVC020
     FM241000 02007KT 5SM -RA BR SCT003 OVC008=

USA.gov is the U.S. government's official web portal to all federal, state and local government web resources and services.